Strona główna
METAR-TAF:

METAR-TAF

Lotnisko :

Cranfield, Anglia

Szerokość geograficzna: 52-04N, Długość geograficzna: 000-37W, wysokość: 111 m

Aktualna obserwacja pogody

Raport powstał 7 godziny i 31 minut temu, godzina 15:20 UTC
Wiatr 9 kt od południe, zmienny między południowo-południowy wschód i południowo-południowy zachód
Temperatura 15°C
Wilgotność 44%
Ciśnienie 1018 hPa
Widzialność 10 km lub więcej
Mało chmury na wysokości 4900 ft

METAR: EGTC 041520Z 18009KT 150V210 9999 FEW049 15/03 Q1018

czas: 23:51 (22:51 UTC)

Prognoza

Raport powstał 11 godziny i 47 minut temu, godzina 11:04 UTC
Prognoza ważna od 04 godzina 12 UTC do 04 godzina 16 UTC
Wiatr 12 kt od południe
Widzialność 10 km lub więcej
Rozproszone chmury na wysokości 3200 ft

TAF: EGTC 041104Z 0412/0416 18012KT 9999 SCT032

Obserwacja i prognoza pogody dla ponad 4000 lotnisk (raport METAR i TAF).

Dostępne stacje oznaczono żółtymi i czerwonymi punktami na mapie.

Najedź kursorem aby zobaczyć nazwę stacji.

Kliknij aby zobaczyć obserwacje i prognozy pogody.

Aby zmienić mapę: kliknij na zielony przycisk z czarnym krzyżykiem, aby powiększyć; na zielony przycisk z myślnikiem, aby pomniejszyć; na zielone strzałki, aby przejść do map sąsiednich.


METAR-TAF: